createdAt,value
2022-12-11T00:00:31.279Z,6.87
2022-12-11T00:02:59.270Z,7.10
2022-12-11T00:05:27.360Z,6.47
2022-12-11T00:07:55.320Z,6.20
2022-12-11T00:10:24.877Z,7.03
2022-12-11T00:12:52.960Z,6.70
2022-12-11T00:15:22.236Z,6.57
2022-12-11T00:17:50.192Z,6.00
2022-12-11T00:20:18.259Z,6.93
2022-12-11T00:22:46.229Z,5.97
2022-12-11T00:25:14.351Z,6.70
2022-12-11T00:27:43.748Z,5.60
2022-12-11T00:30:12.217Z,5.30
2022-12-11T00:32:40.345Z,5.30
2022-12-11T00:35:08.923Z,5.23
2022-12-11T00:37:37.153Z,6.13
2022-12-11T00:40:05.315Z,5.87
2022-12-11T00:42:33.224Z,5.03
2022-12-11T00:45:02.751Z,5.27
2022-12-11T00:47:30.725Z,5.63
2022-12-11T00:49:58.755Z,4.40
2022-12-11T00:52:26.769Z,5.63
2022-12-11T00:54:54.670Z,4.63
2022-12-11T00:57:22.632Z,5.13
2022-12-11T00:59:50.533Z,4.80
2022-12-11T01:02:19.866Z,5.23
2022-12-11T01:04:47.855Z,6.13
2022-12-11T01:07:15.797Z,5.03
2022-12-11T01:10:01.323Z,5.77
2022-12-11T01:12:29.277Z,5.30
2022-12-11T01:14:57.255Z,5.30
2022-12-11T01:17:26.628Z,5.13
2022-12-11T01:19:54.960Z,5.57
2022-12-11T01:22:23.187Z,5.57
2022-12-11T01:24:51.236Z,5.00
2022-12-11T01:27:19.191Z,5.00
2022-12-11T01:29:47.163Z,5.10
2022-12-11T01:32:15.128Z,5.50
2022-12-11T01:34:44.486Z,5.47
2022-12-11T01:37:12.567Z,4.07
2022-12-11T01:39:40.526Z,5.30
2022-12-11T01:42:10.577Z,5.37
2022-12-11T01:44:57.087Z,6.17
2022-12-11T01:47:25.077Z,4.70
2022-12-11T01:49:54.476Z,5.60
2022-12-11T01:52:23.389Z,6.80
2022-12-11T01:54:51.657Z,6.17
2022-12-11T01:57:19.684Z,4.97
2022-12-11T01:59:47.935Z,5.10
2022-12-11T02:02:17.068Z,5.27
2022-12-11T02:04:45.875Z,5.53
2022-12-11T02:07:15.295Z,4.93
2022-12-11T02:09:45.074Z,5.50
2022-12-11T02:12:16.758Z,6.17
2022-12-11T02:14:48.268Z,5.30
2022-12-11T02:17:18.153Z,5.20
2022-12-11T02:19:50.494Z,5.10
2022-12-11T02:22:24.068Z,6.10
2022-12-11T02:24:57.366Z,5.63
2022-12-11T02:27:30.593Z,5.90
2022-12-11T02:30:03.227Z,5.60
2022-12-11T02:32:34.043Z,5.23
2022-12-11T02:35:06.070Z,4.83
2022-12-11T02:37:35.585Z,5.37
2022-12-11T02:40:04.396Z,6.20
2022-12-11T02:42:33.845Z,5.63
2022-12-11T02:45:03.956Z,4.93
2022-12-11T02:47:32.792Z,4.47
2022-12-11T02:50:02.357Z,5.00
2022-12-11T02:52:32.384Z,5.30
2022-12-11T02:55:00.958Z,5.47
2022-12-11T02:57:31.361Z,5.10
2022-12-11T02:59:59.311Z,5.17
2022-12-11T03:02:28.804Z,6.00
2022-12-11T03:04:58.954Z,5.33
2022-12-11T03:07:29.639Z,5.10
2022-12-11T03:09:58.990Z,5.50
2022-12-11T03:12:30.478Z,5.47
2022-12-11T03:15:02.041Z,6.33
2022-12-11T03:17:35.381Z,4.83
2022-12-11T03:20:07.713Z,4.83
2022-12-11T03:22:40.085Z,5.03
2022-12-11T03:25:10.847Z,5.63
2022-12-11T03:27:44.565Z,5.13
2022-12-11T03:30:15.670Z,5.07
2022-12-11T03:32:49.414Z,5.47
2022-12-11T03:35:21.812Z,5.70
2022-12-11T03:37:52.016Z,5.87
2022-12-11T03:40:22.341Z,5.30
2022-12-11T03:42:52.651Z,5.27
2022-12-11T03:45:22.005Z,5.27
2022-12-11T03:47:52.634Z,5.53
2022-12-11T03:50:22.256Z,5.10
2022-12-11T03:52:51.496Z,5.53
2022-12-11T03:55:21.618Z,5.33
2022-12-11T03:57:51.168Z,5.60
2022-12-11T04:00:21.634Z,5.17
2022-12-11T04:03:13.527Z,4.80
2022-12-11T04:05:43.908Z,5.73
2022-12-11T04:08:12.038Z,5.33
2022-12-11T04:10:40.068Z,5.10
2022-12-11T04:13:08.314Z,4.93
2022-12-11T04:15:35.728Z,4.90
2022-12-11T04:18:21.043Z,5.53
2022-12-11T04:21:07.790Z,5.63
2022-12-11T04:23:53.447Z,5.20
2022-12-11T04:26:22.227Z,5.20
2022-12-11T04:28:51.176Z,5.40
2022-12-11T04:31:21.096Z,4.70
2022-12-11T04:33:49.535Z,5.30
2022-12-11T04:36:19.083Z,4.57
2022-12-11T04:38:47.210Z,5.37
2022-12-11T04:41:16.093Z,6.37
2022-12-11T04:43:45.445Z,5.60
2022-12-11T04:46:14.179Z,5.47
2022-12-11T04:48:43.674Z,4.13
2022-12-11T04:51:13.193Z,6.37
2022-12-11T04:53:44.178Z,5.37
2022-12-11T04:56:14.313Z,6.23
2022-12-11T04:58:43.663Z,6.27
2022-12-11T05:01:12.439Z,5.60
2022-12-11T05:03:41.219Z,5.13
2022-12-11T05:06:09.885Z,5.40
2022-12-11T05:08:39.319Z,5.50
2022-12-11T05:11:10.464Z,5.87
2022-12-11T05:13:38.841Z,5.33
2022-12-11T05:16:07.336Z,5.57
2022-12-11T05:18:35.503Z,6.00
2022-12-11T05:21:05.250Z,5.60
2022-12-11T05:23:33.367Z,5.87
2022-12-11T05:26:01.941Z,5.70
2022-12-11T05:28:32.458Z,5.53
2022-12-11T05:31:01.330Z,6.27
2022-12-11T05:33:29.830Z,6.07
2022-12-11T05:35:57.884Z,5.10
2022-12-11T05:38:25.942Z,5.00
2022-12-11T05:40:58.030Z,5.23
2022-12-11T05:43:26.090Z,6.40
2022-12-11T05:45:55.862Z,5.30
2022-12-11T05:48:24.169Z,6.80
2022-12-11T05:50:59.272Z,5.73
2022-12-11T05:53:27.794Z,6.03
2022-12-11T05:55:56.439Z,5.97
2022-12-11T05:58:24.384Z,6.07
2022-12-11T06:00:52.355Z,5.90
2022-12-11T06:03:21.699Z,6.00
2022-12-11T06:05:51.215Z,5.80
2022-12-11T06:08:19.246Z,5.53
2022-12-11T06:10:47.916Z,6.80
2022-12-11T06:13:16.443Z,8.87
2022-12-11T06:15:44.432Z,5.50
2022-12-11T06:18:12.378Z,6.33
2022-12-11T06:20:41.764Z,6.93
2022-12-11T06:23:09.721Z,7.13
2022-12-11T06:25:39.470Z,5.40
2022-12-11T06:28:07.598Z,6.20
2022-12-11T06:30:38.603Z,5.87
2022-12-11T06:33:07.523Z,6.90
2022-12-11T06:35:41.659Z,7.33
2022-12-11T06:38:11.878Z,7.97
2022-12-11T06:40:39.994Z,6.70
2022-12-11T06:43:07.926Z,6.73
2022-12-11T06:45:37.134Z,7.33
2022-12-11T06:48:05.345Z,6.30
2022-12-11T06:50:33.933Z,6.97
2022-12-11T06:53:02.227Z,6.97
2022-12-11T06:55:31.969Z,6.87
2022-12-11T06:58:00.210Z,7.13
2022-12-11T07:00:28.145Z,7.90
2022-12-11T07:02:56.305Z,7.33
2022-12-11T07:05:24.358Z,7.50
2022-12-11T07:07:54.492Z,7.30
2022-12-11T07:10:22.548Z,6.53
2022-12-11T07:12:53.624Z,6.83
2022-12-11T07:15:21.659Z,6.20
2022-12-11T07:17:49.580Z,5.97
2022-12-11T07:20:18.168Z,6.20
2022-12-11T07:22:46.829Z,6.33
2022-12-11T07:25:15.012Z,6.37
2022-12-11T07:27:43.326Z,7.23
2022-12-11T07:30:13.362Z,6.90
2022-12-11T07:32:41.304Z,7.33
2022-12-11T07:35:10.091Z,7.67
2022-12-11T07:37:38.419Z,6.40
2022-12-11T07:40:06.880Z,6.83
2022-12-11T07:42:34.889Z,6.73
2022-12-11T07:45:02.978Z,6.80
2022-12-11T07:47:32.359Z,6.13
2022-12-11T07:50:00.408Z,6.97
2022-12-11T07:52:28.425Z,7.07
2022-12-11T07:54:56.361Z,7.97
2022-12-11T07:57:24.359Z,7.07
2022-12-11T07:59:52.437Z,7.73
2022-12-11T08:02:22.846Z,6.73
2022-12-11T08:04:52.302Z,6.07
2022-12-11T08:07:20.382Z,6.20
2022-12-11T08:09:48.448Z,7.13
2022-12-11T08:12:16.841Z,6.80
2022-12-11T08:14:44.921Z,7.10
2022-12-11T08:17:13.246Z,7.93
2022-12-11T08:19:41.668Z,7.97
2022-12-11T08:22:11.162Z,8.10
2022-12-11T08:24:39.308Z,7.63
2022-12-11T08:27:07.439Z,7.70
2022-12-11T08:29:35.545Z,8.53
2022-12-11T08:32:06.396Z,7.80
2022-12-11T08:34:38.610Z,7.37
2022-12-11T08:37:06.550Z,8.17
2022-12-11T08:39:36.812Z,7.87
2022-12-11T08:42:05.361Z,6.97
2022-12-11T08:44:33.315Z,7.63
2022-12-11T08:47:01.282Z,7.77
2022-12-11T08:49:34.184Z,8.00
2022-12-11T08:52:02.572Z,9.37
2022-12-11T08:54:30.550Z,7.83
2022-12-11T08:56:59.891Z,7.87
2022-12-11T08:59:27.864Z,9.57
2022-12-11T09:01:56.125Z,8.37
2022-12-11T09:04:24.055Z,8.10
2022-12-11T09:06:52.251Z,8.47
2022-12-11T09:09:20.174Z,7.87
2022-12-11T09:11:48.131Z,7.67
2022-12-11T09:14:17.620Z,7.73
2022-12-11T09:16:45.627Z,11.57
2022-12-11T09:19:14.818Z,8.07
2022-12-11T09:21:43.576Z,8.00
2022-12-11T09:24:12.313Z,6.43
2022-12-11T09:26:40.691Z,9.47
2022-12-11T09:29:09.094Z,8.43
2022-12-11T09:31:38.519Z,8.73
2022-12-11T09:34:07.904Z,7.97
2022-12-11T09:36:36.015Z,7.13
2022-12-11T09:39:04.726Z,7.93
2022-12-11T09:41:40.599Z,7.83
2022-12-11T09:44:17.080Z,9.23
2022-12-11T09:46:46.854Z,8.53
2022-12-11T09:49:21.483Z,7.57
2022-12-11T09:51:51.492Z,8.17
2022-12-11T09:54:19.506Z,8.67
2022-12-11T09:56:52.632Z,7.33
2022-12-11T09:59:24.831Z,7.80
2022-12-11T10:01:56.799Z,8.57
2022-12-11T10:04:42.549Z,8.13
2022-12-11T10:07:13.257Z,8.87
2022-12-11T10:09:44.821Z,7.83
2022-12-11T10:12:24.924Z,8.83
2022-12-11T10:15:01.126Z,10.07
2022-12-11T10:17:32.252Z,7.73
2022-12-11T10:20:04.553Z,9.03
2022-12-11T10:22:33.101Z,9.27
2022-12-11T10:25:11.548Z,7.17
2022-12-11T10:27:41.605Z,9.30
2022-12-11T10:30:15.983Z,9.23
2022-12-11T10:32:50.678Z,8.57
2022-12-11T10:35:20.151Z,10.97
2022-12-11T10:37:48.100Z,9.23
2022-12-11T10:40:16.186Z,9.17
2022-12-11T10:42:52.734Z,8.97
2022-12-11T10:45:20.755Z,9.73
2022-12-11T10:47:50.081Z,9.17
2022-12-11T10:50:24.762Z,9.13
2022-12-11T10:52:53.952Z,9.40
2022-12-11T10:55:26.075Z,7.93
2022-12-11T10:57:59.110Z,10.03
2022-12-11T11:00:32.192Z,8.40
2022-12-11T11:03:02.851Z,7.80
2022-12-11T11:05:32.143Z,8.43
2022-12-11T11:08:13.971Z,9.33
2022-12-11T11:10:51.578Z,8.87
2022-12-11T11:13:21.897Z,8.00
2022-12-11T11:15:49.957Z,9.00
2022-12-11T11:18:25.561Z,9.97
2022-12-11T11:20:53.810Z,9.70
2022-12-11T11:23:22.851Z,9.10
2022-12-11T11:25:51.870Z,7.83
2022-12-11T11:28:21.561Z,7.53
2022-12-11T11:30:57.947Z,9.17
2022-12-11T11:33:27.572Z,8.50
2022-12-11T11:35:57.472Z,8.37
2022-12-11T11:38:27.730Z,8.57
2022-12-11T11:41:02.277Z,7.53
2022-12-11T11:43:35.716Z,9.30
2022-12-11T11:46:07.024Z,8.70
2022-12-11T11:48:41.349Z,7.37
2022-12-11T11:51:14.984Z,9.10
2022-12-11T11:53:47.342Z,9.53
2022-12-11T11:56:21.456Z,10.97
2022-12-11T11:58:55.586Z,8.30
2022-12-11T12:01:23.865Z,10.47
2022-12-11T12:03:53.744Z,11.70
2022-12-11T12:06:26.694Z,8.70
2022-12-11T12:08:57.584Z,9.43
2022-12-11T12:11:35.938Z,7.70
2022-12-11T12:14:28.758Z,9.03
2022-12-11T12:17:02.880Z,8.40
2022-12-11T12:19:39.567Z,8.67
2022-12-11T12:22:14.698Z,10.23
2022-12-11T12:24:49.512Z,8.73
2022-12-11T12:27:50.642Z,8.73
2022-12-11T12:30:14.090Z,8.73
2022-12-11T12:32:48.874Z,8.67
2022-12-11T12:35:23.794Z,10.10
2022-12-11T12:37:57.517Z,10.10
2022-12-11T12:40:29.225Z,9.97
2022-12-11T12:43:01.662Z,8.97
2022-12-11T12:45:31.086Z,8.40
2022-12-11T12:47:59.093Z,10.30
2022-12-11T12:50:31.638Z,8.27
2022-12-11T12:52:59.919Z,9.67
2022-12-11T12:55:29.668Z,10.53
2022-12-11T12:58:00.484Z,8.27
2022-12-11T13:00:33.136Z,8.47
2022-12-11T13:03:03.088Z,9.40
2022-12-11T13:05:34.896Z,9.83
2022-12-11T13:08:04.673Z,9.53
2022-12-11T13:10:33.641Z,8.00
2022-12-11T13:13:02.430Z,10.00
2022-12-11T13:15:35.624Z,9.23
2022-12-11T13:18:04.888Z,9.00
2022-12-11T13:20:35.709Z,9.90
2022-12-11T13:23:11.317Z,8.70
2022-12-11T13:25:50.741Z,10.30
2022-12-11T13:28:24.021Z,10.97
2022-12-11T13:30:58.735Z,8.70
2022-12-11T13:33:27.106Z,8.73
2022-12-11T13:36:20.112Z,8.60
2022-12-11T13:38:52.771Z,7.83
2022-12-11T13:41:20.926Z,9.03
2022-12-11T13:43:50.346Z,10.60
2022-12-11T13:46:21.982Z,10.10
2022-12-11T13:48:51.825Z,8.57
2022-12-11T13:51:22.221Z,9.23
2022-12-11T13:53:50.799Z,9.17
2022-12-11T13:56:20.192Z,8.23
2022-12-11T13:58:48.784Z,9.83
2022-12-11T14:01:18.284Z,11.13
2022-12-11T14:03:50.065Z,10.30
2022-12-11T14:06:19.666Z,11.33
2022-12-11T14:08:50.682Z,10.23
2022-12-11T14:11:22.454Z,9.53
2022-12-11T14:13:51.061Z,8.60
2022-12-11T14:16:21.881Z,9.33
2022-12-11T14:18:50.983Z,8.87
2022-12-11T14:21:20.179Z,10.33
2022-12-11T14:23:54.702Z,9.80
2022-12-11T14:26:24.804Z,10.77
2022-12-11T14:28:53.061Z,9.63
2022-12-11T14:31:24.926Z,9.67
2022-12-11T14:33:54.027Z,11.80
2022-12-11T14:36:22.215Z,10.03
2022-12-11T14:38:54.075Z,10.90
2022-12-11T14:41:26.483Z,10.63
2022-12-11T14:43:55.966Z,11.87
2022-12-11T14:46:25.393Z,11.70
2022-12-11T14:49:00.370Z,9.57
2022-12-11T14:51:30.307Z,10.47
2022-12-11T14:53:58.604Z,10.00
2022-12-11T14:56:30.218Z,10.40
2022-12-11T14:58:59.656Z,11.83
2022-12-11T15:01:29.065Z,10.60
2022-12-11T15:04:04.614Z,11.30
2022-12-11T15:06:33.802Z,11.13
2022-12-11T15:09:11.177Z,10.17
2022-12-11T15:11:40.597Z,10.55
2022-12-11T15:14:12.228Z,10.50
2022-12-11T15:16:42.119Z,10.70
2022-12-11T15:19:18.328Z,10.43
2022-12-11T15:21:46.371Z,10.63
2022-12-11T15:24:23.563Z,10.80
2022-12-11T15:26:55.748Z,10.77
2022-12-11T15:29:28.586Z,10.73
2022-12-11T15:32:15.345Z,9.23
2022-12-11T15:34:44.807Z,10.88
2022-12-11T15:37:19.038Z,10.40
2022-12-11T15:39:47.263Z,10.93
2022-12-11T15:42:17.801Z,11.63
2022-12-11T15:44:46.268Z,11.05
2022-12-11T15:47:14.666Z,10.05
2022-12-11T15:49:42.927Z,9.98
2022-12-11T15:52:10.919Z,11.02
2022-12-11T15:54:38.891Z,9.68
2022-12-11T15:57:08.941Z,11.10
2022-12-11T15:59:38.351Z,10.73
2022-12-11T16:02:11.007Z,10.27
2022-12-11T16:04:38.989Z,10.07
2022-12-11T16:07:07.256Z,9.30
2022-12-11T16:09:35.911Z,10.88
2022-12-11T16:12:03.875Z,11.05
2022-12-11T16:14:31.843Z,10.70
2022-12-11T16:17:01.254Z,12.73
2022-12-11T16:19:29.253Z,11.75
2022-12-11T16:21:57.227Z,9.70
2022-12-11T16:24:25.206Z,10.80
2022-12-11T16:26:53.237Z,11.40
2022-12-11T16:29:21.391Z,11.27
2022-12-11T16:31:49.373Z,10.93
2022-12-11T16:34:18.830Z,9.63
2022-12-11T16:36:46.830Z,10.63
2022-12-11T16:39:14.758Z,10.38
2022-12-11T16:41:42.757Z,10.63
2022-12-11T16:44:10.738Z,11.98
2022-12-11T16:46:39.049Z,10.23
2022-12-11T16:49:07.019Z,11.97
2022-12-11T16:51:36.366Z,11.40
2022-12-11T16:54:04.587Z,10.95
2022-12-11T16:56:32.517Z,10.80
2022-12-11T16:59:02.127Z,11.10
2022-12-11T17:01:30.141Z,9.53
2022-12-11T17:03:59.350Z,10.60
2022-12-11T17:06:27.386Z,10.37
2022-12-11T17:08:56.845Z,12.55
2022-12-11T17:11:26.371Z,11.32
2022-12-11T17:13:54.942Z,11.50
2022-12-11T17:16:25.058Z,11.60
2022-12-11T17:18:53.179Z,12.60
2022-12-11T17:21:21.584Z,10.33
2022-12-11T17:23:49.870Z,10.63
2022-12-11T17:26:19.934Z,11.93
2022-12-11T17:28:47.903Z,12.23
2022-12-11T17:31:16.865Z,12.47
2022-12-11T17:33:45.145Z,10.17
2022-12-11T17:36:14.565Z,11.47
2022-12-11T17:38:42.501Z,11.17
2022-12-11T17:41:16.933Z,12.70
2022-12-11T17:43:50.168Z,10.40
2022-12-11T17:46:18.378Z,11.17
2022-12-11T17:48:46.372Z,13.40
2022-12-11T17:51:21.190Z,11.03
2022-12-11T17:53:49.336Z,9.67
2022-12-11T17:56:17.441Z,11.97
2022-12-11T17:58:45.572Z,11.50
2022-12-11T18:01:15.088Z,12.30
2022-12-11T18:03:43.506Z,13.00
2022-12-11T18:06:13.310Z,12.97
2022-12-11T18:08:41.664Z,10.80
2022-12-11T18:11:10.600Z,10.57
2022-12-11T18:13:38.814Z,12.60
2022-12-11T18:16:07.843Z,11.10
2022-12-11T18:18:37.264Z,11.93
2022-12-11T18:21:05.614Z,11.10
2022-12-11T18:23:33.610Z,10.05
2022-12-11T18:26:01.723Z,10.88
2022-12-11T18:28:31.880Z,11.98
2022-12-11T18:31:00.996Z,10.48
2022-12-11T18:33:29.202Z,12.85
2022-12-11T18:35:58.764Z,12.23
2022-12-11T18:38:26.781Z,10.27
2022-12-11T18:40:54.754Z,12.32
2022-12-11T18:43:22.762Z,12.20
2022-12-11T18:45:51.926Z,12.55
2022-12-11T18:48:19.892Z,11.18
2022-12-11T18:50:48.659Z,13.73
2022-12-11T18:53:18.163Z,11.30
2022-12-11T18:55:47.106Z,14.35
2022-12-11T18:58:15.942Z,11.30
2022-12-11T19:00:44.229Z,10.77
2022-12-11T19:03:12.213Z,12.80
2022-12-11T19:05:42.679Z,11.13
2022-12-11T19:08:11.410Z,11.53
2022-12-11T19:10:44.697Z,12.07
2022-12-11T19:13:13.005Z,10.73
2022-12-11T19:15:41.554Z,10.73
2022-12-11T19:18:09.638Z,12.13
2022-12-11T19:21:03.284Z,11.80
2022-12-11T19:23:26.712Z,11.73
2022-12-11T19:25:56.102Z,9.63
2022-12-11T19:28:24.085Z,11.70
2022-12-11T19:30:52.030Z,10.30
2022-12-11T19:33:19.981Z,10.38
2022-12-11T19:35:47.974Z,10.95
2022-12-11T19:38:15.947Z,11.80
2022-12-11T19:40:44.509Z,13.10
2022-12-11T19:43:13.913Z,11.13
2022-12-11T19:45:42.807Z,11.20
2022-12-11T19:48:10.712Z,11.02
2022-12-11T19:50:38.661Z,13.10
2022-12-11T19:53:06.887Z,12.85
2022-12-11T19:55:34.813Z,10.30
2022-12-11T19:58:02.756Z,11.20
2022-12-11T20:00:32.322Z,11.43
2022-12-11T20:03:00.291Z,11.98
2022-12-11T20:05:28.250Z,12.27
2022-12-11T20:07:57.501Z,13.65
2022-12-11T20:10:33.349Z,12.55
2022-12-11T20:13:01.353Z,12.40
2022-12-11T20:15:29.370Z,13.03
2022-12-11T20:17:59.467Z,13.18
2022-12-11T20:20:28.226Z,11.60
2022-12-11T20:22:57.122Z,11.83
2022-12-11T20:25:25.321Z,14.20
2022-12-11T20:27:53.277Z,13.13
2022-12-11T20:30:21.437Z,14.00
2022-12-11T20:32:49.432Z,14.23
2022-12-11T20:35:19.000Z,12.75
2022-12-11T20:37:46.942Z,11.23
2022-12-11T20:40:14.865Z,12.63
2022-12-11T20:42:42.851Z,13.02
2022-12-11T20:45:11.397Z,12.88
2022-12-11T20:47:39.423Z,13.73
2022-12-11T20:50:09.054Z,11.98
2022-12-11T20:52:38.855Z,12.55
2022-12-11T20:55:11.010Z,11.52
2022-12-11T20:57:44.759Z,12.63
2022-12-11T21:00:13.803Z,11.80
2022-12-11T21:02:41.740Z,12.35
2022-12-11T21:05:10.214Z,11.87
2022-12-11T21:07:39.728Z,12.57
2022-12-11T21:10:08.254Z,12.03
2022-12-11T21:12:38.267Z,13.48
2022-12-11T21:15:08.916Z,12.10
2022-12-11T21:17:36.951Z,12.53
2022-12-11T21:20:05.314Z,12.13
2022-12-11T21:22:33.275Z,12.63
2022-12-11T21:25:02.637Z,13.67
2022-12-11T21:27:30.652Z,14.07
2022-12-11T21:29:58.614Z,13.03
2022-12-11T21:32:27.544Z,11.80
2022-12-11T21:34:57.297Z,12.80
2022-12-11T21:37:25.280Z,12.93
2022-12-11T21:39:55.942Z,13.32
2022-12-11T21:42:26.022Z,13.33
2022-12-11T21:45:51.833Z,13.07
2022-12-11T21:47:41.883Z,13.90
2022-12-11T21:50:09.867Z,13.47
2022-12-11T21:52:38.624Z,13.43
2022-12-11T21:55:06.995Z,15.63
2022-12-11T21:57:36.449Z,13.63
2022-12-11T22:00:05.361Z,13.73
2022-12-11T22:02:39.052Z,13.80
2022-12-11T22:05:09.549Z,12.77
2022-12-11T22:07:37.651Z,13.55
2022-12-11T22:10:06.281Z,14.32
2022-12-11T22:12:34.286Z,12.33
2022-12-11T22:15:03.684Z,12.70
2022-12-11T22:17:32.384Z,12.75
2022-12-11T22:20:00.383Z,12.90
2022-12-11T22:22:28.387Z,13.15
2022-12-11T22:24:56.388Z,14.05
2022-12-11T22:27:24.391Z,13.77
2022-12-11T22:29:52.334Z,14.93
2022-12-11T22:32:21.720Z,13.07
2022-12-11T22:34:49.736Z,13.63
2022-12-11T22:37:17.674Z,13.38
2022-12-11T22:39:45.590Z,12.18
2022-12-11T22:42:13.539Z,13.70
2022-12-11T22:44:41.479Z,13.40
2022-12-11T22:47:09.476Z,12.73
2022-12-11T22:49:38.863Z,14.32
2022-12-11T22:52:06.824Z,11.88
2022-12-11T22:54:34.919Z,13.60
2022-12-11T22:57:02.889Z,13.00
2022-12-11T22:59:30.873Z,13.90
2022-12-11T23:01:58.878Z,13.43
2022-12-11T23:04:27.095Z,12.47
2022-12-11T23:06:56.539Z,13.20
2022-12-11T23:09:24.461Z,13.93
2022-12-11T23:11:52.722Z,13.37
2022-12-11T23:14:20.829Z,13.07
2022-12-11T23:16:48.858Z,12.65
2022-12-11T23:19:20.804Z,14.23
2022-12-11T23:21:51.820Z,13.38
2022-12-11T23:24:21.186Z,14.47
2022-12-11T23:26:49.400Z,15.43
2022-12-11T23:29:17.413Z,14.03
2022-12-11T23:31:45.335Z,12.48
2022-12-11T23:34:13.283Z,13.83
2022-12-11T23:36:41.323Z,14.47
2022-12-11T23:39:09.250Z,13.13
2022-12-11T23:41:38.664Z,15.37
2022-12-11T23:44:06.612Z,13.50
2022-12-11T23:46:34.656Z,12.17
2022-12-11T23:49:02.704Z,13.23
2022-12-11T23:51:31.135Z,13.17
2022-12-11T23:53:59.162Z,12.70
2022-12-11T23:56:28.921Z,13.97
2022-12-11T23:58:58.664Z,13.57
